Terminal Aerodrome Forecast
Issued by NWS

Home | Current Version | Previous Version | Text Only | Print | Product List | Glossary On
Versions: 1 2 3 4 5 6 7 8 9 10 11 12 13 14 15 16 17 18 19 20 21 22 23 24 25 26 27 28 29 30
000
FTUS43 KDDC 201132
TAFGCK
TAF
KGCK 201132Z 2012/2112 20008KT P6SM SKC
     FM201800 36008KT P6SM FEW050
     FM210400 04011KT P6SM VCTS BKN050CB
     FM210800 04013KT 6SM BR OVC020=

USA.gov is the U.S. government's official web portal to all federal, state and local government web resources and services.